Terminal Aerodrome Forecast
Issued by NWS

Home | Current Version | Previous Version | Text Only | Print | Product List | Glossary On
Versions: 1 2 3 4 5 6 7 8 9 10 11 12 13 14 15 16 17 18 19 20
000
FTUS46 KMTR 281300 AAA
TAFMRY
TAF AMD
KMRY 281314Z 2813/0112 18005KT P6SM -SHRA FEW020 BKN035
      TEMPO 2813/2817 +SHRA BKN025
     FM281700 25008KT P6SM -SHRA SCT025 BKN050
      TEMPO 2817/2821 +SHRA BKN025
     FM010200 24005KT P6SM VCSH SCT025 BKN050
     FM010400 17004KT P6SM BKN025=

USA.gov is the U.S. government's official web portal to all federal, state and local government web resources and services.